KHFD/HFD METAR and TAF weather

Enter ICAO airport designator
Station Type Date Time Source
KHFD METAR 2019/08/21 02:53 UTC NOAA

KHFD 210253Z 15003KT 10SM CLR 24/19 A3003 RMK AO2 SLP170 T02390194 50007


Station Type Date Time Source
KHFD Decoded METAR 2019/08/21 02:53 UTC NOAA

Station name not available
Aug 20, 2019 - 10:53 PM EDT / 2019.08.21 0253 UTC
Wind: from the SSE (150 degrees) at 3 MPH (3 KT):0
Visibility: 10 mile(s):0
Sky conditions: clear
Temperature: 75.0 F (23.9 C)
Dew Point: 66.9 F (19.4 C)
Relative Humidity: 75%
Pressure (altimeter): 30.03 in. Hg (1016 hPa)
Pressure tendency: 0.02 inches (0.7 hPa) higher than three hours ago
ob: KHFD 210253Z 15003KT 10SM CLR 24/19 A3003 RMK AO2 SLP170 T02390194 50007
cycle: 3

Station Type Date Time Source
KHFD TAF UTC NOAA

Error!

Example: see airport list